Terminal Aerodrome Forecast
Issued by NWS

Home | Current Version | Previous Version | Text Only | Print | Product List | Glossary On
Versions: 1 2 3 4 5 6 7 8 9 10 11 12 13 14 15 16 17 18 19 20 21 22 23 24 25 26 27
000
FTUS43 KSGF 270832 AAC
TAFJLN
TAF AMD
KJLN 270832Z 2709/2806 11009KT P6SM -RA VCTS BKN004 OVC080CB
     FM271000 08006KT 4SM -SHRA VCTS OVC040CB WS020/20040KT
     FM271200 08005KT P6SM VCTS OVC015CB
     FM271600 33009KT P6SM OVC010
     FM272100 34008KT P6SM BKN020
     FM280200 01005KT P6SM SCT025=

USA.gov is the U.S. government's official web portal to all federal, state and local government web resources and services.